createdAt,value
2022-12-23T00:01:55.017Z,5.63
2022-12-23T00:04:23.603Z,10.03
2022-12-23T00:06:52.177Z,6.83
2022-12-23T00:09:20.655Z,8.10
2022-12-23T00:12:07.789Z,9.57
2022-12-23T00:14:53.647Z,8.73
2022-12-23T00:17:23.123Z,7.47
2022-12-23T00:19:51.874Z,5.80
2022-12-23T00:22:20.333Z,4.40
2022-12-23T00:24:48.803Z,9.27
2022-12-23T00:27:18.551Z,8.40
2022-12-23T00:29:46.997Z,10.07
2022-12-23T00:32:15.462Z,6.70
2022-12-23T00:34:44.086Z,4.87
2022-12-23T00:37:12.550Z,7.77
2022-12-23T00:40:02.721Z,7.73
2022-12-23T00:42:53.473Z,6.93
2022-12-23T00:45:21.984Z,6.47
2022-12-23T00:48:08.419Z,6.40
2022-12-23T00:50:38.840Z,13.07
2022-12-23T00:53:07.888Z,6.03
2022-12-23T00:55:36.362Z,4.83
2022-12-23T00:58:06.168Z,7.03
2022-12-23T01:00:51.945Z,5.07
2022-12-23T01:03:38.028Z,9.53
2022-12-23T01:06:06.887Z,8.10
2022-12-23T01:08:35.410Z,4.23
2022-12-23T01:11:04.513Z,5.97
2022-12-23T01:13:34.642Z,7.43
2022-12-23T01:16:04.613Z,4.73
2022-12-23T01:18:33.233Z,6.17
2022-12-23T01:21:03.818Z,7.23
2022-12-23T01:23:32.340Z,7.73
2022-12-23T01:26:02.204Z,6.67
2022-12-23T01:28:31.496Z,4.13
2022-12-23T01:31:03.084Z,5.83
2022-12-23T01:33:32.440Z,6.03
2022-12-23T01:36:01.832Z,6.60
2022-12-23T01:38:30.579Z,3.87
2022-12-23T01:40:59.084Z,8.77
2022-12-23T01:43:45.720Z,5.20
2022-12-23T01:46:16.122Z,6.17
2022-12-23T01:48:46.614Z,5.30
2022-12-23T01:51:17.538Z,5.37
2022-12-23T01:53:48.662Z,4.93
2022-12-23T01:56:19.025Z,7.47
2022-12-23T01:58:49.943Z,7.60
2022-12-23T02:01:37.297Z,5.23
2022-12-23T02:04:07.936Z,6.63
2022-12-23T02:06:56.264Z,7.47
2022-12-23T02:09:27.814Z,6.67
2022-12-23T02:12:21.383Z,5.13
2022-12-23T02:15:28.404Z,7.10
2022-12-23T02:18:10.257Z,6.30
2022-12-23T02:21:13.819Z,3.33
2022-12-23T02:24:16.314Z,5.03
2022-12-23T02:27:00.239Z,7.07
2022-12-23T02:30:02.286Z,5.80
2022-12-23T02:32:38.468Z,4.43
2022-12-23T02:35:12.409Z,10.13
2022-12-23T02:37:45.507Z,6.40
2022-12-23T02:40:18.189Z,4.60
2022-12-23T02:42:49.085Z,2.77
2022-12-23T02:45:19.915Z,4.23
2022-12-23T02:47:52.574Z,6.50
2022-12-23T02:50:25.490Z,4.70
2022-12-23T02:52:55.039Z,3.20
2022-12-23T02:55:25.641Z,6.30
2022-12-23T02:57:55.345Z,5.93
2022-12-23T03:00:24.216Z,3.47
2022-12-23T03:02:54.091Z,4.43
2022-12-23T03:05:27.824Z,3.77
2022-12-23T03:07:59.532Z,3.40
2022-12-23T03:10:35.742Z,4.17
2022-12-23T03:13:10.275Z,2.37
2022-12-23T03:15:42.633Z,2.53
2022-12-23T03:18:15.609Z,5.40
2022-12-23T03:20:48.728Z,4.40
2022-12-23T03:23:20.807Z,2.67
2022-12-23T03:25:54.721Z,1.97
2022-12-23T03:28:28.090Z,3.13
2022-12-23T03:30:58.912Z,3.67
2022-12-23T03:33:30.928Z,4.03
2022-12-23T03:36:02.674Z,3.10
2022-12-23T03:38:33.793Z,5.57
2022-12-23T03:41:06.194Z,2.47
2022-12-23T03:43:38.399Z,2.30
2022-12-23T03:46:11.795Z,1.97
2022-12-23T03:48:44.005Z,2.60
2022-12-23T03:51:16.859Z,3.00
2022-12-23T03:53:48.519Z,4.67
2022-12-23T03:56:29.375Z,2.80
2022-12-23T03:59:00.170Z,2.53
2022-12-23T04:01:32.730Z,3.13
2022-12-23T04:04:05.325Z,4.97
2022-12-23T04:06:37.460Z,5.23
2022-12-23T04:09:07.381Z,2.47
2022-12-23T04:11:36.481Z,2.97
2022-12-23T04:14:04.870Z,3.17
2022-12-23T04:16:33.717Z,3.57
2022-12-23T04:19:03.759Z,2.00
2022-12-23T04:21:32.158Z,1.80
2022-12-23T04:24:00.727Z,2.70
2022-12-23T04:26:29.150Z,4.63
2022-12-23T04:28:57.517Z,2.73
2022-12-23T04:31:26.115Z,2.27
2022-12-23T04:33:54.671Z,3.13
2022-12-23T04:36:24.565Z,3.70
2022-12-23T04:38:53.080Z,1.90
2022-12-23T04:41:21.801Z,3.53
2022-12-23T04:43:52.951Z,2.47
2022-12-23T04:46:22.123Z,4.17
2022-12-23T04:48:50.544Z,2.53
2022-12-23T04:51:19.046Z,3.63
2022-12-23T04:53:49.121Z,2.60
2022-12-23T04:56:17.533Z,2.33
2022-12-23T04:58:46.022Z,3.60
2022-12-23T05:01:14.599Z,2.53
2022-12-23T05:03:43.324Z,1.93
2022-12-23T05:06:11.882Z,3.57
2022-12-23T05:08:40.377Z,1.57
2022-12-23T05:11:10.323Z,2.33
2022-12-23T05:13:38.707Z,2.50
2022-12-23T05:16:08.032Z,1.80
2022-12-23T05:18:36.482Z,2.27
2022-12-23T05:21:05.534Z,2.47
2022-12-23T05:23:33.965Z,2.13
2022-12-23T05:26:02.451Z,2.00
2022-12-23T05:28:32.463Z,1.50
2022-12-23T05:31:01.089Z,2.30
2022-12-23T05:33:30.165Z,1.40
2022-12-23T05:35:58.959Z,1.50
2022-12-23T05:38:28.120Z,1.40
2022-12-23T05:40:56.703Z,2.93
2022-12-23T05:43:25.674Z,1.53
2022-12-23T05:45:56.220Z,1.93
2022-12-23T05:48:25.594Z,2.43
2022-12-23T05:50:54.710Z,2.97
2022-12-23T05:53:24.583Z,1.53
2022-12-23T05:55:53.482Z,1.97
2022-12-23T05:58:22.170Z,1.30
2022-12-23T06:00:50.639Z,1.30
2022-12-23T06:03:20.517Z,1.20
2022-12-23T06:05:51.909Z,1.37
2022-12-23T06:08:20.524Z,1.30
2022-12-23T06:10:49.225Z,1.40
2022-12-23T06:13:17.677Z,1.17
2022-12-23T06:15:47.292Z,1.10
2022-12-23T06:18:15.838Z,1.47
2022-12-23T06:20:48.061Z,1.23
2022-12-23T06:23:16.444Z,1.30
2022-12-23T06:25:44.875Z,1.40
2022-12-23T06:28:13.386Z,1.53
2022-12-23T06:30:41.876Z,2.83
2022-12-23T06:33:10.297Z,1.80
2022-12-23T06:35:38.718Z,1.60
2022-12-23T06:38:11.996Z,2.10
2022-12-23T06:40:41.125Z,1.53
2022-12-23T06:43:11.471Z,2.70
2022-12-23T06:45:39.991Z,1.70
2022-12-23T06:48:08.565Z,1.70
2022-12-23T06:50:36.991Z,1.60
2022-12-23T06:53:06.241Z,2.70
2022-12-23T06:55:36.535Z,1.60
2022-12-23T06:58:05.296Z,2.10
2022-12-23T07:00:34.439Z,1.97
2022-12-23T07:03:03.714Z,1.90
2022-12-23T07:05:36.959Z,1.90
2022-12-23T07:08:07.025Z,3.67
2022-12-23T07:10:37.086Z,1.60
2022-12-23T07:13:07.009Z,3.83
2022-12-23T07:15:35.654Z,1.87
2022-12-23T07:18:05.252Z,1.93
2022-12-23T07:20:34.316Z,2.23
2022-12-23T07:23:03.110Z,2.10
2022-12-23T07:25:32.126Z,2.87
2022-12-23T07:28:02.175Z,1.77
2022-12-23T07:30:30.817Z,2.50
2022-12-23T07:33:00.205Z,2.43
2022-12-23T07:35:30.931Z,2.23
2022-12-23T07:38:00.049Z,2.37
2022-12-23T07:40:28.785Z,2.70
2022-12-23T07:42:58.811Z,2.27
2022-12-23T07:45:30.871Z,3.63
2022-12-23T07:48:03.024Z,2.30
2022-12-23T07:50:31.759Z,2.70
2022-12-23T07:53:00.199Z,2.20
2022-12-23T07:55:28.742Z,2.37
2022-12-23T07:58:00.535Z,3.33
2022-12-23T08:00:30.619Z,2.90
2022-12-23T08:02:59.269Z,3.67
2022-12-23T08:05:27.809Z,2.73
2022-12-23T08:07:56.249Z,3.13
2022-12-23T08:10:24.765Z,2.47
2022-12-23T08:12:53.199Z,2.60
2022-12-23T08:15:21.803Z,3.57
2022-12-23T08:17:51.665Z,2.33
2022-12-23T08:20:20.110Z,2.63
2022-12-23T08:22:48.535Z,4.23
2022-12-23T08:25:17.112Z,3.67
2022-12-23T08:27:45.613Z,2.30
2022-12-23T08:30:14.535Z,4.43
2022-12-23T08:32:43.077Z,2.70
2022-12-23T08:35:13.019Z,2.50
2022-12-23T08:37:41.615Z,2.87
2022-12-23T08:40:10.914Z,2.37
2022-12-23T08:42:39.351Z,3.27
2022-12-23T08:45:08.838Z,2.53
2022-12-23T08:47:37.361Z,3.17
2022-12-23T08:50:06.730Z,3.13
2022-12-23T08:52:36.570Z,2.60
2022-12-23T08:55:05.355Z,3.27
2022-12-23T08:57:35.259Z,2.77
2022-12-23T09:00:05.374Z,2.90
2022-12-23T09:02:34.203Z,3.37
2022-12-23T09:05:03.051Z,2.53
2022-12-23T09:07:31.896Z,2.93
2022-12-23T09:10:01.946Z,2.73
2022-12-23T09:12:30.425Z,3.23
2022-12-23T09:14:58.901Z,4.33
2022-12-23T09:17:27.307Z,2.70
2022-12-23T09:19:55.716Z,2.90
2022-12-23T09:22:24.088Z,3.30
2022-12-23T09:24:52.680Z,2.87
2022-12-23T09:27:22.612Z,4.07
2022-12-23T09:29:50.963Z,2.90
2022-12-23T09:32:19.570Z,2.80
2022-12-23T09:34:48.114Z,4.63
2022-12-23T09:37:17.343Z,3.00
2022-12-23T09:39:47.058Z,3.30
2022-12-23T09:42:28.845Z,2.97
2022-12-23T09:45:06.377Z,3.27
2022-12-23T09:47:35.306Z,2.77
2022-12-23T09:50:08.322Z,2.67
2022-12-23T09:52:41.570Z,2.70
2022-12-23T09:55:11.868Z,2.90
2022-12-23T09:57:49.123Z,2.27
2022-12-23T10:00:19.422Z,2.50
2022-12-23T10:03:02.519Z,2.50
2022-12-23T10:05:37.099Z,5.40
2022-12-23T10:08:10.167Z,5.43
2022-12-23T10:10:42.155Z,3.20
2022-12-23T10:13:20.559Z,2.57
2022-12-23T10:15:49.713Z,2.13
2022-12-23T10:18:22.271Z,2.47
2022-12-23T10:20:54.895Z,4.37
2022-12-23T10:23:29.246Z,2.27
2022-12-23T10:25:57.758Z,4.13
2022-12-23T10:28:29.554Z,2.60
2022-12-23T10:31:38.654Z,2.57
2022-12-23T10:33:59.438Z,2.30
2022-12-23T10:36:36.393Z,2.57
2022-12-23T10:39:12.946Z,2.90
2022-12-23T10:41:59.520Z,2.30
2022-12-23T10:44:42.104Z,2.53
2022-12-23T10:47:17.103Z,2.60
2022-12-23T10:49:52.501Z,2.30
2022-12-23T10:52:23.459Z,4.27
2022-12-23T10:54:51.964Z,6.83
2022-12-23T10:57:21.415Z,2.93
2022-12-23T10:59:51.538Z,3.53
2022-12-23T11:02:33.713Z,2.13
2022-12-23T11:05:02.330Z,3.07
2022-12-23T11:07:47.257Z,3.50
2022-12-23T11:10:19.304Z,2.93
2022-12-23T11:12:49.251Z,3.73
2022-12-23T11:15:33.524Z,4.33
2022-12-23T11:18:05.130Z,2.97
2022-12-23T11:20:34.353Z,2.77
2022-12-23T11:23:04.385Z,5.03
2022-12-23T11:25:36.199Z,3.90
2022-12-23T11:28:08.555Z,2.37
2022-12-23T11:30:53.465Z,2.10
2022-12-23T11:33:26.734Z,2.87
2022-12-23T11:36:10.149Z,2.40
2022-12-23T11:38:39.197Z,2.67
2022-12-23T11:41:09.069Z,4.53
2022-12-23T11:43:40.402Z,2.33
2022-12-23T11:46:19.050Z,5.17
2022-12-23T11:48:54.427Z,3.67
2022-12-23T11:51:26.901Z,1.90
2022-12-23T11:54:00.973Z,3.33
2022-12-23T11:56:30.828Z,3.43
2022-12-23T11:59:06.849Z,2.47
2022-12-23T12:01:37.561Z,3.83
2022-12-23T12:04:09.222Z,3.47
2022-12-23T12:06:43.599Z,4.23
2022-12-23T12:09:13.673Z,3.10
2022-12-23T12:11:48.101Z,3.90
2022-12-23T12:14:22.372Z,3.17
2022-12-23T12:16:59.716Z,2.30
2022-12-23T12:19:31.576Z,2.80
2022-12-23T12:22:04.011Z,3.80
2022-12-23T12:24:38.039Z,2.33
2022-12-23T12:27:07.895Z,2.37
2022-12-23T12:29:38.937Z,2.23
2022-12-23T12:32:13.748Z,3.57
2022-12-23T12:34:47.081Z,2.80
2022-12-23T12:37:23.450Z,2.67
2022-12-23T12:39:55.393Z,2.67
2022-12-23T12:42:29.165Z,2.10
2022-12-23T12:45:04.098Z,3.60
2022-12-23T12:47:57.053Z,2.33
2022-12-23T12:50:31.151Z,1.60
2022-12-23T12:53:04.947Z,1.90
2022-12-23T12:55:36.660Z,2.20
2022-12-23T12:58:05.620Z,2.60
2022-12-23T13:00:42.991Z,3.90
2022-12-23T13:03:24.418Z,3.37
2022-12-23T13:06:01.479Z,4.20
2022-12-23T13:08:41.232Z,4.00
2022-12-23T13:11:13.482Z,4.20
2022-12-23T13:13:47.921Z,4.73
2022-12-23T13:16:27.113Z,3.43
2022-12-23T13:19:02.249Z,6.00
2022-12-23T13:21:34.352Z,3.23
2022-12-23T13:24:10.522Z,4.37
2022-12-23T13:26:50.448Z,4.93
2022-12-23T13:29:34.632Z,6.70
2022-12-23T13:32:12.401Z,3.50
2022-12-23T13:34:47.374Z,4.63
2022-12-23T13:37:24.473Z,7.33
2022-12-23T13:39:58.056Z,4.30
2022-12-23T13:42:31.337Z,5.43
2022-12-23T13:45:00.665Z,6.63
2022-12-23T13:47:37.013Z,3.50
2022-12-23T13:50:13.224Z,2.77
2022-12-23T13:52:55.719Z,2.93
2022-12-23T13:55:49.392Z,4.23
2022-12-23T13:58:19.558Z,6.53
2022-12-23T14:00:48.093Z,3.27
2022-12-23T14:03:24.140Z,3.93
2022-12-23T14:06:38.198Z,6.53
2022-12-23T14:09:08.184Z,4.90
2022-12-23T14:11:36.697Z,4.57
2022-12-23T14:14:06.450Z,5.03
2022-12-23T14:16:46.686Z,4.70
2022-12-23T14:19:31.480Z,5.33
2022-12-23T14:22:08.897Z,4.07
2022-12-23T14:25:02.538Z,4.90
2022-12-23T14:27:37.753Z,5.83
2022-12-23T14:30:12.373Z,5.73
2022-12-23T14:32:45.366Z,3.83
2022-12-23T14:35:46.685Z,3.90
2022-12-23T14:38:32.486Z,3.13
2022-12-23T14:41:24.573Z,4.27
2022-12-23T14:43:58.048Z,3.90
2022-12-23T14:46:55.109Z,2.30
2022-12-23T14:49:40.292Z,3.67
2022-12-23T14:52:44.289Z,1.90
2022-12-23T14:55:41.900Z,3.13
2022-12-23T14:58:33.540Z,2.80
2022-12-23T15:01:05.699Z,2.37
2022-12-23T15:03:36.475Z,3.77
2022-12-23T15:06:07.428Z,3.37
2022-12-23T15:08:39.410Z,4.07
2022-12-23T15:11:09.450Z,2.80
2022-12-23T15:13:39.460Z,2.27
2022-12-23T15:16:08.756Z,3.87
2022-12-23T15:18:37.315Z,2.37
2022-12-23T15:21:12.554Z,3.13
2022-12-23T15:23:49.598Z,2.27
2022-12-23T15:26:18.434Z,2.53
2022-12-23T15:28:48.335Z,2.63
2022-12-23T15:31:29.705Z,2.30
2022-12-23T15:34:04.006Z,3.00
2022-12-23T15:36:36.123Z,1.97
2022-12-23T15:39:10.267Z,2.40
2022-12-23T15:41:46.508Z,2.53
2022-12-23T15:44:20.440Z,4.80
2022-12-23T15:46:50.732Z,5.53
2022-12-23T15:49:20.567Z,4.50
2022-12-23T15:52:07.810Z,3.63
2022-12-23T15:54:41.490Z,4.17
2022-12-23T15:57:17.811Z,2.30
2022-12-23T15:59:47.805Z,3.30
2022-12-23T16:05:09.992Z,5.53
2022-12-23T16:07:39.818Z,1.50
2022-12-23T16:10:15.223Z,1.70
2022-12-23T16:12:44.959Z,2.83
2022-12-23T16:15:26.584Z,2.73
2022-12-23T16:18:13.322Z,2.17
2022-12-23T16:20:43.207Z,2.20
2022-12-23T16:23:12.845Z,2.33
2022-12-23T16:25:46.806Z,1.70
2022-12-23T16:28:22.944Z,2.40
2022-12-23T16:30:54.642Z,1.60
2022-12-23T16:33:28.335Z,1.70
2022-12-23T16:35:57.966Z,1.80
2022-12-23T16:38:27.768Z,2.17
2022-12-23T16:40:57.717Z,1.87
2022-12-23T16:43:26.387Z,2.10
2022-12-23T16:45:58.010Z,2.03
2022-12-23T16:48:30.252Z,1.90
2022-12-23T16:50:58.905Z,1.80
2022-12-23T16:53:27.714Z,4.23
2022-12-23T16:56:00.475Z,3.10
2022-12-23T16:58:30.267Z,1.63
2022-12-23T17:01:00.452Z,4.20
2022-12-23T17:03:29.557Z,2.37
2022-12-23T17:05:58.406Z,1.77
2022-12-23T17:08:26.911Z,2.50
2022-12-23T17:10:57.090Z,2.53
2022-12-23T17:13:25.578Z,2.50
2022-12-23T17:15:53.936Z,1.93
2022-12-23T17:18:23.656Z,2.10
2022-12-23T17:20:52.108Z,2.03
2022-12-23T17:23:29.091Z,2.03
2022-12-23T17:25:58.242Z,2.10
2022-12-23T17:28:30.564Z,2.17
2022-12-23T17:30:59.473Z,2.90
2022-12-23T17:33:30.952Z,4.27
2022-12-23T17:35:59.665Z,3.27
2022-12-23T17:38:29.098Z,3.63
2022-12-23T17:40:59.348Z,2.17
2022-12-23T17:43:28.391Z,2.50
2022-12-23T17:45:56.886Z,2.37
2022-12-23T17:48:31.142Z,2.87
2022-12-23T17:51:01.549Z,2.53
2022-12-23T17:53:30.031Z,2.03
2022-12-23T17:55:58.461Z,3.00
2022-12-23T17:58:26.882Z,1.80
2022-12-23T18:00:55.422Z,1.97
2022-12-23T18:03:24.828Z,1.80
2022-12-23T18:06:01.122Z,2.10
2022-12-23T18:08:31.908Z,1.90
2022-12-23T18:11:00.869Z,1.73
2022-12-23T18:13:29.475Z,1.70
2022-12-23T18:15:58.208Z,2.07
2022-12-23T18:18:37.812Z,1.80
2022-12-23T18:21:11.710Z,3.57
2022-12-23T18:23:41.634Z,1.63
2022-12-23T18:26:14.296Z,2.13
2022-12-23T18:28:43.295Z,1.57
2022-12-23T18:31:15.216Z,2.23
2022-12-23T18:33:43.842Z,1.60
2022-12-23T18:36:21.534Z,2.73
2022-12-23T18:38:52.158Z,1.43
2022-12-23T18:41:21.016Z,1.83
2022-12-23T18:43:49.667Z,3.33
2022-12-23T18:46:20.027Z,2.20
2022-12-23T18:48:49.526Z,2.67
2022-12-23T18:51:19.197Z,1.57
2022-12-23T18:53:48.940Z,1.73
2022-12-23T18:56:21.075Z,3.10
2022-12-23T18:58:49.766Z,2.93
2022-12-23T19:01:19.318Z,2.00
2022-12-23T19:03:48.166Z,3.83
2022-12-23T19:06:17.282Z,3.13
2022-12-23T19:08:45.829Z,3.53
2022-12-23T19:11:15.556Z,5.50
2022-12-23T19:13:45.706Z,7.07
2022-12-23T19:16:15.941Z,5.60
2022-12-23T19:18:44.988Z,4.97
2022-12-23T19:21:13.582Z,5.20
2022-12-23T19:23:42.731Z,4.63
2022-12-23T19:26:12.895Z,5.23
2022-12-23T19:28:42.363Z,3.03
2022-12-23T19:31:13.715Z,2.53
2022-12-23T19:33:44.896Z,2.03
2022-12-23T19:36:14.831Z,1.83
2022-12-23T19:38:43.316Z,1.97
2022-12-23T19:41:11.964Z,3.20
2022-12-23T19:43:40.505Z,3.03
2022-12-23T19:46:10.093Z,1.20
2022-12-23T19:48:39.973Z,1.60
2022-12-23T19:51:09.872Z,3.00
2022-12-23T19:53:39.003Z,2.83
2022-12-23T19:56:09.218Z,3.30
2022-12-23T19:58:39.333Z,1.90
2022-12-23T20:01:09.177Z,2.53
2022-12-23T20:03:38.377Z,2.40
2022-12-23T20:06:10.318Z,1.43
2022-12-23T20:08:38.821Z,1.50
2022-12-23T20:11:09.361Z,1.33
2022-12-23T20:13:37.990Z,1.83
2022-12-23T20:16:07.618Z,2.07
2022-12-23T20:18:36.210Z,3.50
2022-12-23T20:21:04.917Z,3.13
2022-12-23T20:23:35.696Z,1.97
2022-12-23T20:26:04.450Z,1.90
2022-12-23T20:28:33.582Z,1.50
2022-12-23T20:31:07.983Z,2.40
2022-12-23T20:33:37.177Z,1.70
2022-12-23T20:36:07.512Z,2.87
2022-12-23T20:38:38.661Z,3.20
2022-12-23T20:41:07.190Z,2.70
2022-12-23T20:43:35.791Z,1.77
2022-12-23T20:46:04.935Z,1.70
2022-12-23T20:48:34.646Z,2.13
2022-12-23T20:51:05.866Z,2.60
2022-12-23T20:53:34.414Z,1.43
2022-12-23T20:56:06.191Z,1.87
2022-12-23T20:58:52.632Z,2.40
2022-12-23T21:01:21.417Z,1.53
2022-12-23T21:03:49.946Z,1.70
2022-12-23T21:06:18.399Z,2.77
2022-12-23T21:08:46.845Z,1.57
2022-12-23T21:11:17.322Z,1.70
2022-12-23T21:13:48.240Z,2.50
2022-12-23T21:16:16.774Z,3.33
2022-12-23T21:18:49.129Z,2.73
2022-12-23T21:21:17.828Z,3.67
2022-12-23T21:23:46.624Z,5.57
2022-12-23T21:26:18.687Z,6.37
2022-12-23T21:28:48.899Z,2.23
2022-12-23T21:31:19.944Z,1.77
2022-12-23T21:33:49.527Z,2.30
2022-12-23T21:36:21.326Z,2.80
2022-12-23T21:38:50.352Z,1.73
2022-12-23T21:41:22.045Z,1.50
2022-12-23T21:43:51.061Z,2.50
2022-12-23T21:46:21.011Z,1.60
2022-12-23T21:48:50.006Z,2.13
2022-12-23T21:51:20.140Z,2.13
2022-12-23T21:53:49.980Z,1.70
2022-12-23T21:56:21.511Z,1.60
2022-12-23T21:58:50.008Z,1.50
2022-12-23T22:01:20.106Z,3.70
2022-12-23T22:03:49.888Z,1.50
2022-12-23T22:06:19.985Z,2.37
2022-12-23T22:08:48.868Z,2.80
2022-12-23T22:11:19.442Z,2.60
2022-12-23T22:13:49.698Z,2.00
2022-12-23T22:16:20.361Z,2.30
2022-12-23T22:18:49.420Z,4.20
2022-12-23T22:21:20.287Z,4.67
2022-12-23T22:23:49.622Z,2.03
2022-12-23T22:26:24.562Z,2.73
2022-12-23T22:28:56.457Z,1.93
2022-12-23T22:31:30.057Z,3.40
2022-12-23T22:33:58.686Z,2.93
2022-12-23T22:36:27.677Z,2.10
2022-12-23T22:38:57.744Z,1.63
2022-12-23T22:41:27.844Z,4.07
2022-12-23T22:43:58.391Z,3.73
2022-12-23T22:46:27.219Z,2.90
2022-12-23T22:48:56.377Z,3.60
2022-12-23T22:51:26.686Z,4.90
2022-12-23T22:53:55.754Z,2.83
2022-12-23T22:56:25.607Z,3.50
2022-12-23T22:58:54.611Z,5.57
2022-12-23T23:01:26.159Z,2.40
2022-12-23T23:03:57.734Z,3.20
2022-12-23T23:06:27.221Z,2.53
2022-12-23T23:08:56.547Z,2.57
2022-12-23T23:11:26.404Z,2.90
2022-12-23T23:13:55.024Z,3.07
2022-12-23T23:16:25.414Z,4.87
2022-12-23T23:18:54.575Z,4.73
2022-12-23T23:21:23.467Z,4.33
2022-12-23T23:23:51.970Z,2.40
2022-12-23T23:26:21.128Z,2.70
2022-12-23T23:28:49.728Z,2.40
2022-12-23T23:34:07.861Z,2.57
2022-12-23T23:36:36.468Z,1.83
2022-12-23T23:39:06.055Z,4.03
2022-12-23T23:41:35.792Z,2.80
2022-12-23T23:44:04.243Z,3.47
2022-12-23T23:46:32.741Z,2.73
2022-12-23T23:49:01.348Z,2.13
2022-12-23T23:51:31.092Z,3.47
2022-12-23T23:53:59.570Z,2.00
2022-12-23T23:56:33.846Z,3.70
2022-12-23T23:59:06.120Z,1.90
